Terminal Aerodrome Forecast
Issued by NWS Boston, MA

Home | Current Version | Previous Version | Text Only | Print | Product List | Glossary On
Versions: 1 2 3 4 5 6 7 8 9 10 11 12 13 14 15 16 17 18 19 20 21 22
000
FTUS41 KBOX 221124
TAFBDL
TAF
KBDL 221124Z 2212/2318 00000KT 1/4SM FG OVC002
     FM221500 01004KT 2SM BR OVC008
     FM221700 01005KT 6SM BR OVC012
     FM230000 02012KT P6SM OVC015
     FM230800 05010KT 6SM -DZ BR OVC012=

USA.gov is the U.S. government's official web portal to all federal, state and local government web resources and services.